createdAt,value
2023-05-17T00:01:47.453Z,99205.75
2023-05-17T00:04:14.336Z,99208.44
2023-05-17T00:06:43.505Z,99213.03
2023-05-17T00:09:10.541Z,99214.41
2023-05-17T00:11:37.388Z,99210.06
2023-05-17T00:14:04.847Z,99210.34
2023-05-17T00:16:31.860Z,99223.59
2023-05-17T00:19:01.459Z,99213.34
2023-05-17T00:21:31.439Z,99210.38
2023-05-17T00:23:58.357Z,99210.59
2023-05-17T00:26:25.370Z,99211.41
2023-05-17T00:28:52.349Z,99212.22
2023-05-17T00:31:19.243Z,99214.63
2023-05-17T00:33:47.563Z,99221.63
2023-05-17T00:36:15.380Z,99216.75
2023-05-17T00:38:42.180Z,99224.81
2023-05-17T00:41:09.431Z,99224.00
2023-05-17T00:43:36.272Z,99219.66
2023-05-17T00:46:03.584Z,99229.94
2023-05-17T00:48:33.766Z,99232.38
2023-05-17T00:51:00.872Z,99221.09
2023-05-17T00:53:28.981Z,99231.13
2023-05-17T00:55:56.214Z,99241.91
2023-05-17T00:58:24.641Z,99243.50
2023-05-17T01:00:51.905Z,99244.50
2023-05-17T01:03:24.651Z,99241.84
2023-05-17T01:05:51.992Z,99249.34
2023-05-17T01:08:18.758Z,99242.38
2023-05-17T01:11:44.253Z,99243.41
2023-05-17T01:14:29.427Z,99251.50
2023-05-17T01:17:05.100Z,99253.19
2023-05-17T01:19:55.181Z,99252.66
2023-05-17T01:22:50.945Z,99255.88
2023-05-17T01:25:57.429Z,99253.91
2023-05-17T01:28:27.421Z,99256.03
2023-05-17T01:30:58.530Z,99259.75
2023-05-17T01:33:27.577Z,99259.44
2023-05-17T01:35:54.492Z,99264.59
2023-05-17T01:38:21.612Z,99264.84
2023-05-17T01:41:23.141Z,99266.81
2023-05-17T01:44:17.534Z,99269.28
2023-05-17T01:46:44.397Z,99270.88
2023-05-17T01:49:23.978Z,99268.75
2023-05-17T01:52:17.511Z,99269.69
2023-05-17T01:55:06.399Z,99268.31
2023-05-17T01:57:37.063Z,99267.78
2023-05-17T02:00:12.077Z,99273.25
2023-05-17T02:02:39.042Z,99274.34
2023-05-17T02:05:08.623Z,99267.09
2023-05-17T02:07:36.399Z,99277.06
2023-05-17T02:10:03.753Z,99268.41
2023-05-17T02:12:30.621Z,99280.84
2023-05-17T02:14:57.430Z,99275.69
2023-05-17T02:17:24.465Z,99275.69
2023-05-17T02:19:51.656Z,99280.22
2023-05-17T02:22:19.003Z,99283.59
2023-05-17T02:24:46.748Z,99280.66
2023-05-17T02:27:13.561Z,99282.06
2023-05-17T02:29:40.393Z,99282.41
2023-05-17T02:32:07.661Z,99281.63
2023-05-17T02:34:34.471Z,99279.41
2023-05-17T02:37:01.241Z,99292.84
2023-05-17T02:39:28.077Z,99298.69
2023-05-17T02:41:57.930Z,99299.69
2023-05-17T02:44:25.049Z,99295.44
2023-05-17T02:46:51.927Z,99293.06
2023-05-17T02:49:19.254Z,99291.19
2023-05-17T02:51:46.566Z,99294.19
2023-05-17T02:54:16.240Z,99293.84
2023-05-17T02:56:44.305Z,99291.00
2023-05-17T02:59:11.323Z,99285.53
2023-05-17T03:01:38.154Z,99294.16
2023-05-17T03:04:05.204Z,99296.38
2023-05-17T03:06:32.213Z,99295.13
2023-05-17T03:08:59.261Z,99300.22
2023-05-17T03:11:26.512Z,99302.28
2023-05-17T03:13:53.312Z,99302.81
2023-05-17T03:16:20.762Z,99295.56
2023-05-17T03:18:48.092Z,99307.41
2023-05-17T03:21:15.076Z,99292.88
2023-05-17T03:23:41.949Z,99308.22
2023-05-17T03:26:09.103Z,99306.84
2023-05-17T03:28:35.903Z,99311.41
2023-05-17T03:31:02.894Z,99314.44
2023-05-17T03:33:29.910Z,99316.13
2023-05-17T03:35:56.729Z,99313.59
2023-05-17T03:38:23.616Z,99317.91
2023-05-17T03:40:53.190Z,99312.13
2023-05-17T03:43:22.697Z,99324.31
2023-05-17T03:45:49.563Z,99314.91
2023-05-17T03:48:16.526Z,99319.47
2023-05-17T03:50:43.519Z,99316.47
2023-05-17T03:53:10.739Z,99325.50
2023-05-17T03:55:38.141Z,99325.19
2023-05-17T03:58:04.957Z,99325.69
2023-05-17T04:00:31.951Z,99327.78
2023-05-17T04:02:58.970Z,99324.34
2023-05-17T04:05:26.869Z,99326.53
2023-05-17T04:07:54.441Z,99321.69
2023-05-17T04:10:22.512Z,99334.09
2023-05-17T04:12:49.917Z,99340.47
2023-05-17T04:15:16.760Z,99348.03
2023-05-17T04:17:43.667Z,99351.19
2023-05-17T04:20:11.542Z,99353.22
2023-05-17T04:22:38.340Z,99357.56
2023-05-17T04:25:06.016Z,99347.44
2023-05-17T04:27:32.869Z,99352.69
2023-05-17T04:29:59.717Z,99350.19
2023-05-17T04:32:28.000Z,99355.13
2023-05-17T04:34:56.224Z,99359.31
2023-05-17T04:37:23.139Z,99363.41
2023-05-17T04:39:51.525Z,99363.69
2023-05-17T04:42:18.562Z,99365.34
2023-05-17T04:44:45.580Z,99368.97
2023-05-17T04:47:12.418Z,99365.25
2023-05-17T04:49:39.243Z,99371.09
2023-05-17T04:52:06.445Z,99373.56
2023-05-17T04:54:33.343Z,99371.19
2023-05-17T04:57:00.120Z,99375.22
2023-05-17T04:59:26.891Z,99383.34
2023-05-17T05:01:53.660Z,99379.13
2023-05-17T05:04:20.656Z,99379.66
2023-05-17T05:06:47.792Z,99387.31
2023-05-17T05:09:15.710Z,99386.47
2023-05-17T05:11:42.535Z,99393.28
2023-05-17T05:14:09.401Z,99396.09
2023-05-17T05:16:36.709Z,99400.44
2023-05-17T05:19:03.826Z,99401.53
2023-05-17T05:21:31.282Z,99402.13
2023-05-17T05:23:58.136Z,99412.16
2023-05-17T05:26:25.053Z,99418.63
2023-05-17T05:28:52.011Z,99411.38
2023-05-17T05:31:19.020Z,99420.13
2023-05-17T05:33:46.280Z,99426.97
2023-05-17T05:36:13.126Z,99417.28
2023-05-17T05:38:40.125Z,99424.00
2023-05-17T05:41:06.987Z,99427.28
2023-05-17T05:43:35.947Z,99422.72
2023-05-17T05:46:03.131Z,99428.44
2023-05-17T05:48:30.084Z,99422.22
2023-05-17T05:50:57.051Z,99423.84
2023-05-17T05:53:23.930Z,99421.44
2023-05-17T05:55:50.969Z,99422.00
2023-05-17T05:58:17.757Z,99423.91
2023-05-17T06:00:44.695Z,99422.56
2023-05-17T06:03:11.907Z,99422.03
2023-05-17T06:05:40.276Z,99432.03
2023-05-17T06:08:09.329Z,99436.88
2023-05-17T06:10:36.202Z,99434.72
2023-05-17T06:13:03.144Z,99436.03
2023-05-17T06:15:32.336Z,99442.28
2023-05-17T06:17:59.740Z,99439.56
2023-05-17T06:20:26.721Z,99449.53
2023-05-17T06:22:53.919Z,99448.47
2023-05-17T06:25:20.995Z,99449.53
2023-05-17T06:27:47.956Z,99450.03
2023-05-17T06:30:15.176Z,99450.53
2023-05-17T06:32:42.254Z,99454.56
2023-05-17T06:35:10.094Z,99460.22
2023-05-17T06:37:37.137Z,99468.31
2023-05-17T06:40:14.779Z,99462.59
2023-05-17T06:42:43.444Z,99470.44
2023-05-17T06:45:11.198Z,99461.22
2023-05-17T06:47:38.285Z,99466.06
2023-05-17T06:50:06.821Z,99467.97
2023-05-17T06:52:33.966Z,99463.59
2023-05-17T06:55:00.851Z,99462.75
2023-05-17T06:57:27.922Z,99468.63
2023-05-17T06:59:54.763Z,99471.28
2023-05-17T07:02:21.819Z,99468.81
2023-05-17T07:04:49.820Z,99469.03
2023-05-17T07:07:16.687Z,99467.66
2023-05-17T07:09:43.562Z,99471.72
2023-05-17T07:12:10.441Z,99478.78
2023-05-17T07:14:37.411Z,99479.31
2023-05-17T07:17:04.628Z,99484.16
2023-05-17T07:19:31.596Z,99482.53
2023-05-17T07:21:58.458Z,99486.88
2023-05-17T07:24:25.895Z,99485.97
2023-05-17T07:26:52.954Z,99478.72
2023-05-17T07:29:19.892Z,99485.91
2023-05-17T07:31:46.754Z,99482.94
2023-05-17T07:34:14.339Z,99479.44
2023-05-17T07:36:41.449Z,99481.00
2023-05-17T07:39:09.903Z,99481.53
2023-05-17T07:41:36.997Z,99485.88
2023-05-17T07:44:04.009Z,99487.44
2023-05-17T07:46:30.957Z,99488.03
2023-05-17T07:48:58.987Z,99478.38
2023-05-17T07:51:26.289Z,99481.63
2023-05-17T07:53:53.328Z,99483.34
2023-05-17T07:56:20.494Z,99483.97
2023-05-17T07:58:47.315Z,99492.00
2023-05-17T08:01:14.298Z,99483.88
2023-05-17T08:03:48.302Z,99485.03
2023-05-17T08:06:16.698Z,99485.50
2023-05-17T08:08:44.591Z,99480.97
2023-05-17T08:11:14.072Z,99488.31
2023-05-17T08:13:41.485Z,99488.81
2023-05-17T08:16:14.066Z,99484.44
2023-05-17T08:18:43.526Z,99483.81
2023-05-17T08:21:13.282Z,99483.69
2023-05-17T08:23:41.841Z,99484.09
2023-05-17T08:26:08.684Z,99482.31
2023-05-17T08:28:35.830Z,99489.78
2023-05-17T08:31:04.147Z,99489.25
2023-05-17T08:33:31.096Z,99479.41
2023-05-17T08:36:02.949Z,99486.72
2023-05-17T08:38:29.915Z,99483.19
2023-05-17T08:40:59.763Z,99484.53
2023-05-17T08:43:28.293Z,99479.84
2023-05-17T08:45:58.138Z,99474.56
2023-05-17T08:48:31.279Z,99479.56
2023-05-17T08:51:00.008Z,99481.66
2023-05-17T08:53:27.310Z,99472.47
2023-05-17T08:56:03.998Z,99462.97
2023-05-17T08:58:54.883Z,99477.31
2023-05-17T09:01:25.803Z,99467.16
2023-05-17T09:03:53.820Z,99476.44
2023-05-17T09:06:22.738Z,99476.13
2023-05-17T09:08:54.977Z,99469.84
2023-05-17T09:11:29.974Z,99477.69
2023-05-17T09:14:06.642Z,99479.06
2023-05-17T09:16:38.170Z,99480.75
2023-05-17T09:19:07.589Z,99486.47
2023-05-17T09:21:36.991Z,99483.06
2023-05-17T09:24:07.749Z,99480.63
2023-05-17T09:26:44.233Z,99484.94
2023-05-17T09:29:16.899Z,99484.44
2023-05-17T09:31:44.874Z,99489.38
2023-05-17T09:34:17.908Z,99479.44
2023-05-17T09:36:44.756Z,99487.94
2023-05-17T09:39:13.594Z,99491.59
2023-05-17T09:41:51.258Z,99486.06
2023-05-17T09:44:18.140Z,99495.31
2023-05-17T09:46:47.791Z,99487.16
2023-05-17T09:49:16.731Z,99496.25
2023-05-17T09:51:49.131Z,99486.72
2023-05-17T09:54:17.633Z,99494.81
2023-05-17T09:56:45.149Z,99502.28
2023-05-17T09:59:14.768Z,99500.78
2023-05-17T10:01:45.047Z,99495.63
2023-05-17T10:04:13.704Z,99490.81
2023-05-17T10:06:48.836Z,99486.41
2023-05-17T10:09:18.598Z,99496.34
2023-05-17T10:11:47.225Z,99493.13
2023-05-17T10:14:32.722Z,99489.69
2023-05-17T10:17:03.194Z,99488.97
2023-05-17T10:19:31.325Z,99489.69
2023-05-17T10:22:11.068Z,99483.22
2023-05-17T10:24:48.733Z,99486.84
2023-05-17T10:27:16.354Z,99481.41
2023-05-17T10:29:47.702Z,99484.44
2023-05-17T10:32:19.478Z,99484.84
2023-05-17T10:35:01.418Z,99484.25
2023-05-17T10:37:34.594Z,99487.34
2023-05-17T10:40:01.897Z,99489.19
2023-05-17T10:42:31.697Z,99495.53
2023-05-17T10:45:01.638Z,99492.09
2023-05-17T10:47:34.988Z,99494.94
2023-05-17T10:50:08.952Z,99501.09
2023-05-17T10:52:45.234Z,99507.94
2023-05-17T10:55:12.557Z,99503.81
2023-05-17T10:57:50.708Z,99490.19
2023-05-17T11:00:27.683Z,99503.19
2023-05-17T11:03:19.668Z,99500.44
2023-05-17T11:06:19.449Z,99499.63
2023-05-17T11:09:16.577Z,99497.31
2023-05-17T11:12:08.190Z,99487.53
2023-05-17T11:14:48.823Z,99490.59
2023-05-17T11:17:38.160Z,99497.56
2023-05-17T11:20:13.106Z,99496.53
2023-05-17T11:22:58.660Z,99509.97
2023-05-17T11:25:37.158Z,99499.78
2023-05-17T11:28:22.979Z,99495.94
2023-05-17T11:30:53.614Z,99503.06
2023-05-17T11:33:37.410Z,99503.97
2023-05-17T11:36:13.307Z,99495.59
2023-05-17T11:38:40.342Z,99500.16
2023-05-17T11:43:49.797Z,99491.22
2023-05-17T11:46:22.655Z,99485.13
2023-05-17T11:48:53.735Z,99483.66
2023-05-17T11:51:23.881Z,99485.28
2023-05-17T11:53:55.914Z,99482.25
2023-05-17T11:56:41.961Z,99482.13
2023-05-17T11:59:10.684Z,99496.88
2023-05-17T12:01:48.771Z,99481.78
2023-05-17T12:04:25.833Z,99476.78
2023-05-17T12:06:58.055Z,99477.34
2023-05-17T12:09:26.359Z,99481.69
2023-05-17T12:11:53.533Z,99477.69
2023-05-17T12:14:21.659Z,99481.06
2023-05-17T12:16:56.593Z,99483.31
2023-05-17T12:19:27.169Z,99477.69
2023-05-17T12:21:54.235Z,99478.16
2023-05-17T12:24:21.423Z,99482.31
2023-05-17T12:26:48.676Z,99485.41
2023-05-17T12:29:22.700Z,99480.47
2023-05-17T12:31:53.735Z,99490.59
2023-05-17T12:34:21.897Z,99485.94
2023-05-17T12:36:49.682Z,99477.91
2023-05-17T12:39:18.031Z,99478.38
2023-05-17T12:41:45.426Z,99470.13
2023-05-17T12:44:16.571Z,99469.75
2023-05-17T12:46:45.465Z,99471.59
2023-05-17T12:49:13.045Z,99474.91
2023-05-17T12:51:45.875Z,99472.28
2023-05-17T12:54:16.229Z,99467.88
2023-05-17T12:56:44.606Z,99469.72
2023-05-17T12:59:13.534Z,99475.41
2023-05-17T13:01:49.862Z,99465.13
2023-05-17T13:04:19.497Z,99467.09
2023-05-17T13:06:53.216Z,99457.72
2023-05-17T13:09:26.319Z,99457.63
2023-05-17T13:12:00.874Z,99457.50
2023-05-17T13:14:49.200Z,99456.88
2023-05-17T13:17:33.730Z,99457.63
2023-05-17T13:20:10.502Z,99456.44
2023-05-17T13:22:48.119Z,99455.66
2023-05-17T13:25:16.001Z,99450.44
2023-05-17T13:27:46.712Z,99445.47
2023-05-17T13:30:15.549Z,99440.38
2023-05-17T13:32:43.295Z,99453.59
2023-05-17T13:35:10.806Z,99440.78
2023-05-17T13:37:37.881Z,99436.50
2023-05-17T13:40:05.786Z,99441.53
2023-05-17T13:42:33.121Z,99445.75
2023-05-17T13:45:01.443Z,99449.66
2023-05-17T13:47:32.590Z,99444.19
2023-05-17T13:50:00.728Z,99456.59
2023-05-17T13:52:28.165Z,99443.94
2023-05-17T13:54:55.055Z,99435.16
2023-05-17T13:57:21.881Z,99441.97
2023-05-17T13:59:49.037Z,99443.91
2023-05-17T14:02:15.862Z,99441.47
2023-05-17T14:04:42.733Z,99435.34
2023-05-17T14:07:09.605Z,99441.94
2023-05-17T14:09:36.828Z,99430.22
2023-05-17T14:12:04.254Z,99438.38
2023-05-17T14:14:31.509Z,99443.09
2023-05-17T14:16:58.537Z,99441.19
2023-05-17T14:19:28.336Z,99440.16
2023-05-17T14:21:55.437Z,99445.31
2023-05-17T14:24:22.491Z,99433.91
2023-05-17T14:26:49.616Z,99445.34
2023-05-17T14:29:16.763Z,99435.03
2023-05-17T14:31:43.559Z,99437.28
2023-05-17T14:34:10.443Z,99434.72
2023-05-17T14:36:38.252Z,99433.09
2023-05-17T14:39:05.559Z,99431.75
2023-05-17T14:41:32.704Z,99433.97
2023-05-17T14:43:59.580Z,99430.28
2023-05-17T14:46:26.958Z,99425.97
2023-05-17T14:48:56.232Z,99432.19
2023-05-17T14:51:23.170Z,99433.06
2023-05-17T14:53:49.958Z,99441.28
2023-05-17T14:56:17.651Z,99421.41
2023-05-17T14:58:44.565Z,99421.88
2023-05-17T15:01:11.710Z,99424.88
2023-05-17T15:03:41.648Z,99427.47
2023-05-17T15:06:11.077Z,99424.47
2023-05-17T15:08:39.335Z,99434.84
2023-05-17T15:11:06.292Z,99425.63
2023-05-17T15:13:33.062Z,99430.56
2023-05-17T15:16:03.355Z,99432.69
2023-05-17T15:18:31.265Z,99430.31
2023-05-17T15:20:58.172Z,99429.84
2023-05-17T15:23:25.067Z,99432.44
2023-05-17T15:25:53.552Z,99430.88
2023-05-17T15:28:21.194Z,99422.75
2023-05-17T15:30:48.076Z,99427.53
2023-05-17T15:33:15.065Z,99416.22
2023-05-17T15:35:42.030Z,99424.50
2023-05-17T15:38:08.970Z,99417.41
2023-05-17T15:40:35.804Z,99415.13
2023-05-17T15:43:02.894Z,99416.34
2023-05-17T15:45:30.000Z,99417.81
2023-05-17T15:47:57.344Z,99409.75
2023-05-17T15:50:24.341Z,99417.47
2023-05-17T15:52:51.376Z,99419.09
2023-05-17T15:55:18.370Z,99420.06
2023-05-17T15:57:46.436Z,99423.28
2023-05-17T16:00:14.038Z,99420.16
2023-05-17T16:02:41.026Z,99417.09
2023-05-17T16:05:08.657Z,99417.25
2023-05-17T16:07:35.546Z,99412.22
2023-05-17T16:10:02.831Z,99411.25
2023-05-17T16:12:29.914Z,99407.22
2023-05-17T16:14:57.534Z,99414.59
2023-05-17T16:17:24.430Z,99405.09
2023-05-17T16:19:51.667Z,99400.88
2023-05-17T16:22:18.476Z,99402.16
2023-05-17T16:24:45.406Z,99399.91
2023-05-17T16:27:12.217Z,99410.22
2023-05-17T16:29:40.205Z,99406.00
2023-05-17T16:32:08.242Z,99412.09
2023-05-17T16:34:36.313Z,99412.59
2023-05-17T16:37:04.482Z,99410.63
2023-05-17T16:39:31.551Z,99413.16
2023-05-17T16:41:58.432Z,99407.81
2023-05-17T16:44:25.253Z,99402.38
2023-05-17T16:46:52.105Z,99403.78
2023-05-17T16:49:18.937Z,99402.63
2023-05-17T16:51:45.899Z,99399.06
2023-05-17T16:54:12.659Z,99405.94
2023-05-17T16:56:39.482Z,99396.13
2023-05-17T16:59:06.359Z,99394.38
2023-05-17T17:01:33.741Z,99400.97
2023-05-17T17:04:00.763Z,99395.84
2023-05-17T17:06:28.015Z,99394.44
2023-05-17T17:08:55.025Z,99395.22
2023-05-17T17:11:21.959Z,99400.34
2023-05-17T17:13:49.836Z,99401.31
2023-05-17T17:16:17.324Z,99397.47
2023-05-17T17:18:47.075Z,99391.16
2023-05-17T17:21:17.626Z,99388.56
2023-05-17T17:23:45.970Z,99398.16
2023-05-17T17:26:13.340Z,99392.69
2023-05-17T17:28:40.190Z,99399.09
2023-05-17T17:31:07.647Z,99397.00
2023-05-17T17:33:35.704Z,99391.97
2023-05-17T17:36:09.043Z,99398.75
2023-05-17T17:38:36.344Z,99397.78
2023-05-17T17:41:03.475Z,99397.63
2023-05-17T17:43:32.853Z,99401.75
2023-05-17T17:46:00.380Z,99407.34
2023-05-17T17:48:27.484Z,99409.06
2023-05-17T17:50:54.374Z,99414.25
2023-05-17T17:53:22.498Z,99412.13
2023-05-17T17:55:49.358Z,99403.25
2023-05-17T17:58:16.279Z,99411.53
2023-05-17T18:00:43.096Z,99408.75
2023-05-17T18:03:09.932Z,99406.16
2023-05-17T18:05:36.874Z,99407.06
2023-05-17T18:08:04.033Z,99409.28
2023-05-17T18:10:31.655Z,99406.16
2023-05-17T18:12:59.625Z,99405.66
2023-05-17T18:15:26.563Z,99401.63
2023-05-17T18:17:54.705Z,99405.78
2023-05-17T18:20:26.150Z,99409.13
2023-05-17T18:22:53.364Z,99415.19
2023-05-17T18:25:21.472Z,99409.00
2023-05-17T18:27:48.300Z,99419.84
2023-05-17T18:30:15.726Z,99414.59
2023-05-17T18:32:42.776Z,99418.59
2023-05-17T18:35:10.585Z,99410.91
2023-05-17T18:37:37.439Z,99421.59
2023-05-17T18:40:05.248Z,99416.84
2023-05-17T18:42:32.062Z,99410.19
2023-05-17T18:44:59.812Z,99416.34
2023-05-17T18:47:27.800Z,99419.25
2023-05-17T18:49:54.787Z,99411.63
2023-05-17T18:52:21.651Z,99409.53
2023-05-17T18:54:48.650Z,99416.03
2023-05-17T18:57:15.628Z,99418.09
2023-05-17T18:59:42.511Z,99415.00
2023-05-17T19:02:09.330Z,99421.50
2023-05-17T19:04:36.658Z,99422.81
2023-05-17T19:07:03.968Z,99427.34
2023-05-17T19:09:32.253Z,99426.59
2023-05-17T19:11:59.249Z,99426.88
2023-05-17T19:14:26.410Z,99425.84
2023-05-17T19:16:56.675Z,99428.78
2023-05-17T19:19:25.205Z,99433.34
2023-05-17T19:21:52.255Z,99428.84
2023-05-17T19:24:19.067Z,99443.94
2023-05-17T19:26:45.953Z,99443.84
2023-05-17T19:29:12.767Z,99446.69
2023-05-17T19:31:39.579Z,99440.00
2023-05-17T19:34:06.452Z,99445.69
2023-05-17T19:36:33.391Z,99456.50
2023-05-17T19:39:00.632Z,99452.97
2023-05-17T19:41:30.484Z,99457.09
2023-05-17T19:43:57.298Z,99460.66
2023-05-17T19:46:24.237Z,99456.38
2023-05-17T19:48:51.644Z,99453.94
2023-05-17T19:51:18.470Z,99454.75
2023-05-17T19:53:53.319Z,99462.91
2023-05-17T19:56:24.321Z,99459.22
2023-05-17T19:58:52.496Z,99457.03
2023-05-17T20:01:21.833Z,99454.88
2023-05-17T20:03:49.150Z,99455.72
2023-05-17T20:06:16.081Z,99449.53
2023-05-17T20:08:45.366Z,99464.19
2023-05-17T20:11:12.684Z,99463.16
2023-05-17T20:13:40.424Z,99462.63
2023-05-17T20:16:12.677Z,99465.16
2023-05-17T20:18:44.967Z,99466.00
2023-05-17T20:21:21.656Z,99465.25
2023-05-17T20:23:56.398Z,99467.16
2023-05-17T20:26:26.939Z,99469.91
2023-05-17T20:28:54.122Z,99470.69
2023-05-17T20:31:21.925Z,99475.59
2023-05-17T20:33:49.093Z,99466.09
2023-05-17T20:36:16.150Z,99475.59
2023-05-17T20:38:43.290Z,99475.84
2023-05-17T20:41:11.038Z,99473.97
2023-05-17T20:43:37.890Z,99473.75
2023-05-17T20:46:06.652Z,99472.97
2023-05-17T20:48:34.576Z,99468.09
2023-05-17T20:51:02.894Z,99469.72
2023-05-17T20:53:30.651Z,99464.84
2023-05-17T20:55:58.904Z,99472.47
2023-05-17T20:58:29.249Z,99476.00
2023-05-17T21:00:58.045Z,99473.84
2023-05-17T21:03:28.243Z,99473.06
2023-05-17T21:05:58.584Z,99464.41
2023-05-17T21:08:27.370Z,99473.34
2023-05-17T21:10:55.828Z,99472.28
2023-05-17T21:13:25.424Z,99469.28
2023-05-17T21:15:54.118Z,99470.34
2023-05-17T21:18:24.055Z,99476.63
2023-05-17T21:20:52.467Z,99480.94
2023-05-17T21:23:19.581Z,99471.22
2023-05-17T21:25:46.528Z,99474.47
2023-05-17T21:28:13.620Z,99477.97
2023-05-17T21:30:41.010Z,99476.38
2023-05-17T21:33:10.916Z,99474.47
2023-05-17T21:35:37.983Z,99472.31
2023-05-17T21:38:07.472Z,99470.44
2023-05-17T21:40:34.758Z,99463.94
2023-05-17T21:43:06.811Z,99459.59
2023-05-17T21:45:36.635Z,99465.03
2023-05-17T21:48:03.870Z,99457.47
2023-05-17T21:50:31.062Z,99460.69
2023-05-17T21:52:58.084Z,99455.56
2023-05-17T21:55:25.487Z,99452.06
2023-05-17T21:57:52.968Z,99457.44
2023-05-17T22:00:20.213Z,99453.38
2023-05-17T22:02:48.750Z,99453.06
2023-05-17T22:05:15.797Z,99448.47
2023-05-17T22:07:46.525Z,99455.00
2023-05-17T22:10:14.366Z,99454.72
2023-05-17T22:12:41.804Z,99454.72
2023-05-17T22:15:09.705Z,99457.91
2023-05-17T22:17:47.815Z,99457.09
2023-05-17T22:20:19.595Z,99461.69
2023-05-17T22:22:46.646Z,99457.88
2023-05-17T22:25:15.732Z,99461.94
2023-05-17T22:27:43.203Z,99455.72
2023-05-17T22:30:10.761Z,99455.22
2023-05-17T22:32:37.745Z,99452.78
2023-05-17T22:35:05.593Z,99464.91
2023-05-17T22:37:32.864Z,99464.66
2023-05-17T22:39:59.761Z,99459.25
2023-05-17T22:42:26.631Z,99461.41
2023-05-17T22:44:53.451Z,99458.94
2023-05-17T22:47:23.041Z,99447.25
2023-05-17T22:49:52.468Z,99447.78
2023-05-17T22:52:19.830Z,99464.28
2023-05-17T22:54:46.647Z,99448.59
2023-05-17T22:57:13.567Z,99453.41
2023-05-17T22:59:43.726Z,99448.22
2023-05-17T23:02:12.532Z,99455.22
2023-05-17T23:04:40.225Z,99461.72
2023-05-17T23:07:09.724Z,99458.44
2023-05-17T23:09:40.974Z,99452.00
2023-05-17T23:12:13.789Z,99458.50
2023-05-17T23:14:40.586Z,99453.91
2023-05-17T23:17:08.915Z,99460.59
2023-05-17T23:19:35.928Z,99466.22
2023-05-17T23:22:03.416Z,99462.13
2023-05-17T23:24:30.473Z,99465.88
2023-05-17T23:26:57.638Z,99465.09
2023-05-17T23:29:25.998Z,99467.47
2023-05-17T23:31:53.608Z,99469.03
2023-05-17T23:34:20.910Z,99472.22
2023-05-17T23:36:47.890Z,99468.06
2023-05-17T23:39:15.631Z,99471.50
2023-05-17T23:41:42.922Z,99459.38
2023-05-17T23:44:09.951Z,99465.66
2023-05-17T23:46:37.262Z,99462.94
2023-05-17T23:49:04.402Z,99452.16
2023-05-17T23:51:34.533Z,99450.81
2023-05-17T23:54:01.701Z,99447.66
2023-05-17T23:56:29.110Z,99449.25
2023-05-17T23:58:56.140Z,99450.63
